Time;durP1;ratioP1;P1;durP2;ratioP2;P2;SDS_P1;SDS_P2;PMS_P1;PMS_P2;Temp;Humidity;BMP_temperature;BMP_pressure;BME280_temperature;BME280_humidity;BME280_pressure;Samples;Min_cycle;Max_cycle;Signal;HPM_P1;HPM_P2
2023/06/16 00:02:13;;;;;;;9.88;6.55;;;;;;;14.97;96.41;102009.56;5064209;28;20040;-78
2023/06/16 00:04:40;;;;;;;9.07;6.78;;;;;;;14.95;97.40;102008.75;5061491;28;20612;-77
2023/06/16 00:07:06;;;;;;;9.68;7.00;;;;;;;14.94;98.51;102007.88;5063553;28;20112;-77
2023/06/16 00:09:31;;;;;;;11.95;8.05;;;;;;;14.93;99.03;102010.66;5062871;28;20444;-79
2023/06/16 00:11:57;;;;;;;13.77;8.18;;;;;;;14.91;99.76;102008.03;5062314;28;20048;-77
2023/06/16 00:14:23;;;;;;;10.68;7.97;;;;;;;14.93;100.00;102005.31;5061001;28;20039;-77
2023/06/16 00:16:52;;;;;;;10.65;8.18;;;;;;;14.93;100.00;102005.31;5063811;28;20028;-77
2023/06/16 00:19:18;;;;;;;12.07;8.93;;;;;;;14.93;100.00;102013.31;5060350;28;20075;-78
2023/06/16 00:21:45;;;;;;;10.75;8.15;;;;;;;14.91;100.00;102001.81;5063259;28;20513;-78
2023/06/16 00:24:10;;;;;;;10.30;7.80;;;;;;;14.88;100.00;102001.97;5061560;28;20028;-77
2023/06/16 00:26:36;;;;;;;9.95;7.25;;;;;;;14.85;100.00;102004.78;5052083;28;20511;-76
2023/06/16 00:29:03;;;;;;;10.57;7.93;;;;;;;14.79;100.00;102001.47;5060975;28;20028;-78
2023/06/16 00:31:31;;;;;;;11.68;7.78;;;;;;;14.77;100.00;101997.13;5060793;28;20097;-76
2023/06/16 00:33:57;;;;;;;10.15;7.43;;;;;;;14.77;100.00;102003.31;5061269;28;20040;-77
2023/06/16 00:36:22;;;;;;;11.98;7.85;;;;;;;14.74;100.00;101999.94;5048494;28;20112;-78
2023/06/16 00:38:48;;;;;;;10.48;7.80;;;;;;;14.74;100.00;101998.13;5063196;28;20039;-77
2023/06/16 00:41:13;;;;;;;11.32;9.18;;;;;;;14.74;100.00;101999.94;5062045;28;20090;-78
2023/06/16 00:43:39;;;;;;;15.13;8.90;;;;;;;14.73;100.00;101998.16;5062226;28;20131;-77
2023/06/16 00:46:05;;;;;;;15.20;9.85;;;;;;;14.70;100.00;101999.16;5063210;28;20048;-78
2023/06/16 00:48:31;;;;;;;13.52;9.65;;;;;;;14.67;100.00;102004.66;5064759;28;20146;-78
2023/06/16 00:51:00;;;;;;;13.55;9.82;;;;;;;14.68;100.00;102006.38;5064587;28;20089;-78
2023/06/16 00:53:25;;;;;;;12.25;8.82;;;;;;;14.64;100.00;102000.31;5060330;28;20028;-78
2023/06/16 00:55:51;;;;;;;13.50;9.55;;;;;;;14.63;100.00;101998.59;5061608;28;20083;-77
2023/06/16 00:58:18;;;;;;;15.15;9.85;;;;;;;14.61;100.00;102004.91;5060608;28;20375;-77
2023/06/16 01:00:46;;;;;;;10.95;8.88;;;;;;;14.61;100.00;101996.91;5045671;28;20032;-78
2023/06/16 01:03:13;;;;;;;14.02;9.88;;;;;;;14.59;100.00;101990.81;5060346;28;21033;-76
2023/06/16 01:05:39;;;;;;;12.40;9.27;;;;;;;14.56;100.00;101997.13;5053294;28;20121;-78
2023/06/16 01:08:21;;;;;;;12.80;9.15;;;;;;;14.51;100.00;101983.97;5060398;28;20159;-78
2023/06/16 01:11:03;;;;;;;13.20;9.48;;;;;;;14.49;100.00;101993.84;5058886;28;20032;-78
2023/06/16 01:14:03;;;;;;;13.38;9.23;;;;;;;14.46;100.00;101980.69;5061670;28;20032;-78
2023/06/16 01:16:33;;;;;;;13.98;8.73;;;;;;;14.45;100.00;101988.72;5075190;28;20486;-78
2023/06/16 01:19:09;;;;;;;11.50;9.00;;;;;;;14.43;100.00;101986.13;5046382;28;20118;-77
2023/06/16 01:21:50;;;;;;;14.23;10.15;;;;;;;14.42;100.00;101989.72;5047299;28;20037;-77
2023/06/16 01:24:18;;;;;;;12.48;9.23;;;;;;;14.40;100.00;101988.94;5058915;28;20040;-78
2023/06/16 01:26:49;;;;;;;16.02;9.95;;;;;;;14.39;100.00;101976.56;5059929;28;20042;-78
2023/06/16 01:29:16;;;;;;;13.75;10.15;;;;;;;14.38;100.00;101974.78;5061023;28;20028;-78
2023/06/16 01:31:42;;;;;;;13.10;10.38;;;;;;;14.37;100.00;101981.06;5056806;28;20040;-77
2023/06/16 01:34:08;;;;;;;13.68;10.00;;;;;;;14.35;100.00;101981.16;5045653;28;20028;-78
2023/06/16 01:36:39;;;;;;;14.80;10.35;;;;;;;14.35;100.00;101978.47;5045403;28;20047;-77
2023/06/16 01:39:07;;;;;;;14.30;10.18;;;;;;;14.35;100.00;101972.28;5060240;28;20063;-76
2023/06/16 01:41:34;;;;;;;14.27;9.88;;;;;;;14.31;100.00;101974.22;5044378;28;20071;-77
2023/06/16 01:44:00;;;;;;;13.88;9.95;;;;;;;14.29;100.00;101968.09;5044197;28;20025;-77
2023/06/16 01:46:25;;;;;;;15.57;10.38;;;;;;;14.31;100.00;101970.66;5065374;28;20121;-76
2023/06/16 01:48:54;;;;;;;16.45;10.40;;;;;;;14.28;100.00;101968.16;5095034;27;20043;-77
2023/06/16 01:51:21;;;;;;;13.75;9.85;;;;;;;14.27;100.00;101964.59;5066484;28;20030;-77
2023/06/16 01:53:47;;;;;;;12.40;9.52;;;;;;;14.23;100.00;101963.88;5067269;28;20406;-77
2023/06/16 01:56:12;;;;;;;13.85;9.30;;;;;;;14.20;100.00;101960.47;5062648;28;20036;-78
2023/06/16 01:58:38;;;;;;;11.95;9.38;;;;;;;14.16;100.00;101962.41;5067243;28;20040;-77
2023/06/16 02:01:10;;;;;;;14.02;9.82;;;;;;;14.12;100.00;101956.34;5057271;28;20039;-77
2023/06/16 02:03:40;;;;;;;13.60;9.68;;;;;;;14.11;100.00;101959.09;5057661;28;20836;-78
2023/06/16 02:06:18;;;;;;;12.70;9.65;;;;;;;14.08;100.00;101962.75;5058441;28;20106;-77
2023/06/16 02:08:45;;;;;;;15.35;9.90;;;;;;;14.04;100.00;101963.81;5062791;28;20673;-78
2023/06/16 02:11:11;;;;;;;14.10;9.57;;;;;;;14.02;100.00;101965.69;5060689;28;20036;-76
2023/06/16 02:13:39;;;;;;;12.95;9.68;;;;;;;13.99;100.00;101969.34;5058575;28;20139;-76
2023/06/16 02:16:05;;;;;;;11.50;8.60;;;;;;;13.97;100.00;101971.19;5058244;28;20491;-77
2023/06/16 02:18:32;;;;;;;14.75;9.80;;;;;;;13.93;100.00;101969.59;5061183;28;20041;-77
2023/06/16 02:20:58;;;;;;;14.23;9.80;;;;;;;13.91;100.00;101974.13;5059969;28;20126;-77
2023/06/16 02:23:24;;;;;;;14.00;9.80;;;;;;;13.89;100.00;101973.28;5057369;28;20123;-77
2023/06/16 02:25:49;;;;;;;14.38;9.75;;;;;;;13.87;100.00;101976.94;5060299;28;20119;-78
2023/06/16 02:28:15;;;;;;;14.07;10.00;;;;;;;13.88;100.00;101979.56;5059960;28;20065;-79
2023/06/16 02:30:40;;;;;;;16.13;9.55;;;;;;;13.83;100.00;101965.56;5061050;28;20376;-77
2023/06/16 02:33:06;;;;;;;11.80;8.70;;;;;;;13.81;100.00;101972.75;5063098;28;20036;-77
2023/06/16 02:35:31;;;;;;;11.80;8.82;;;;;;;13.79;100.00;101969.28;5065023;28;20041;-77
2023/06/16 02:38:00;;;;;;;12.48;8.98;;;;;;;13.76;100.00;101972.06;5066168;28;20082;-78
2023/06/16 02:40:25;;;;;;;12.43;8.75;;;;;;;13.71;100.00;101967.81;5064905;28;20028;-78
2023/06/16 02:42:51;;;;;;;12.38;9.02;;;;;;;13.71;100.00;101970.47;5055505;28;20051;-77
2023/06/16 02:45:16;;;;;;;13.30;9.57;;;;;;;13.69;100.00;101974.97;5066207;28;20037;-77
2023/06/16 02:47:42;;;;;;;14.98;9.88;;;;;;;13.67;100.00;101976.84;5063840;28;20075;-77
2023/06/16 02:50:10;;;;;;;15.75;10.02;;;;;;;13.65;100.00;101973.38;5066135;28;20024;-77
2023/06/16 02:52:36;;;;;;;14.30;10.20;;;;;;;13.63;100.00;101975.25;5063056;28;20043;-77
2023/06/16 02:55:04;;;;;;;12.90;9.52;;;;;;;13.58;100.00;101978.06;5064697;28;20119;-76
2023/06/16 02:57:30;;;;;;;14.32;9.70;;;;;;;13.56;100.00;101982.59;5064617;28;20360;-77
2023/06/16 02:59:55;;;;;;;13.32;9.60;;;;;;;13.55;100.00;101988.84;5065551;28;20045;-77
2023/06/16 03:02:21;;;;;;;14.40;10.00;;;;;;;13.52;100.00;101988.13;5062384;28;20036;-77
2023/06/16 03:04:47;;;;;;;13.88;10.40;;;;;;;13.49;100.00;101980.22;5062485;28;20850;-78
2023/06/16 03:07:12;;;;;;;19.52;10.60;;;;;;;13.46;100.00;101980.38;5062824;28;21609;-78
2023/06/16 03:09:40;;;;;;;16.10;11.07;;;;;;;13.43;100.00;101978.66;5063332;28;20035;-77
2023/06/16 03:12:06;;;;;;;14.32;10.38;;;;;;;13.40;100.00;101974.31;5094635;27;20036;-78
2023/06/16 03:14:32;;;;;;;16.10;10.60;;;;;;;13.40;100.00;101979.66;5082989;28;20106;-77
2023/06/16 03:16:58;;;;;;;15.90;11.15;;;;;;;13.39;100.00;101972.59;5062894;28;20545;-78
2023/06/16 03:19:23;;;;;;;18.02;11.35;;;;;;;13.40;100.00;101970.81;5045268;28;20039;-77
2023/06/16 03:21:50;;;;;;;18.00;12.45;;;;;;;13.40;100.00;101969.00;5061314;28;20041;-77
2023/06/16 03:24:18;;;;;;;18.95;13.65;;;;;;;13.42;100.00;101977.78;5062271;28;20043;-77
2023/06/16 03:26:44;;;;;;;20.85;13.43;;;;;;;13.43;100.00;101974.22;5060036;28;20712;-77
2023/06/16 03:29:12;;;;;;;18.98;13.10;;;;;;;13.46;100.00;101965.28;5097128;27;20063;-76
2023/06/16 03:31:38;;;;;;;18.88;13.05;;;;;;;13.47;100.00;101968.78;5067469;28;20367;-77
2023/06/16 03:34:03;;;;;;;24.38;13.68;;;;;;;13.50;100.00;101968.69;5062473;28;20027;-78
2023/06/16 03:36:32;;;;;;;21.70;14.63;;;;;;;13.51;100.00;101971.28;5094867;27;20117;-77
2023/06/16 03:38:58;;;;;;;21.80;14.25;;;;;;;13.54;100.00;101970.28;5062643;28;20032;-77
2023/06/16 03:41:23;;;;;;;20.15;14.18;;;;;;;13.56;100.00;101965.75;5079749;28;20741;-77
2023/06/16 03:43:49;;;;;;;22.77;14.60;;;;;;;13.56;100.00;101969.28;5079482;28;20048;-77
2023/06/16 03:46:14;;;;;;;20.25;14.57;;;;;;;13.59;100.00;101970.97;5062528;28;22205;-77
2023/06/16 03:48:40;;;;;;;22.70;15.70;;;;;;;13.60;100.00;101964.72;5064113;28;20040;-78
2023/06/16 03:51:06;;;;;;;20.27;14.93;;;;;;;13.62;100.00;101968.16;5064745;28;20052;-77
2023/06/16 03:53:31;;;;;;;21.63;15.00;;;;;;;13.63;100.00;101967.28;5083359;28;20037;-78
2023/06/16 03:55:56;;;;;;;22.13;15.43;;;;;;;13.65;100.00;101970.72;5064121;28;20096;-78
2023/06/16 03:58:24;;;;;;;22.13;14.75;;;;;;;13.65;100.00;101964.53;5060520;28;20057;-78
2023/06/16 04:00:50;;;;;;;23.70;15.90;;;;;;;13.67;100.00;101965.34;5063372;28;20569;-77
2023/06/16 04:03:15;;;;;;;24.15;16.75;;;;;;;13.69;100.00;101964.34;5065709;28;20088;-77
2023/06/16 04:05:44;;;;;;;23.08;15.80;;;;;;;13.71;100.00;101967.81;5061133;28;20093;-76
2023/06/16 04:08:10;;;;;;;24.13;16.67;;;;;;;13.72;100.00;101958.03;5063039;28;20517;-77
2023/06/16 04:10:38;;;;;;;28.45;17.35;;;;;;;13.74;100.00;101963.28;5063220;28;20032;-77
2023/06/16 04:13:03;;;;;;;25.90;17.48;;;;;;;13.76;100.00;101958.75;5062606;28;20028;-77
2023/06/16 04:15:29;;;;;;;29.30;18.13;;;;;;;13.77;100.00;101957.84;5058748;28;20063;-77
2023/06/16 04:17:54;;;;;;;31.15;19.77;;;;;;;13.79;100.00;101953.31;5059833;28;20494;-78
2023/06/16 04:20:20;;;;;;;33.63;20.75;;;;;;;13.82;100.00;101953.19;5064713;28;20036;-78
2023/06/16 04:22:46;;;;;;;35.95;20.55;;;;;;;13.87;100.00;101945.88;5062974;28;20540;-77
2023/06/16 04:25:12;;;;;;;31.55;20.38;;;;;;;13.90;100.00;101945.75;5062292;28;20052;-78
2023/06/16 04:27:38;;;;;;;33.30;21.63;;;;;;;13.95;100.00;101948.25;5058216;28;20110;-78
2023/06/16 04:30:06;;;;;;;32.58;22.40;;;;;;;13.99;100.00;101942.72;5062944;28;20076;-77
2023/06/16 04:32:35;;;;;;;32.58;19.65;;;;;;;14.05;100.00;101938.91;5062680;28;20032;-79
2023/06/16 04:35:04;;;;;;;33.33;21.15;;;;;;;14.11;100.00;101943.13;5064421;28;20028;-78
2023/06/16 04:37:30;;;;;;;31.33;20.35;;;;;;;14.19;100.00;101951.66;5063037;28;20036;-77
2023/06/16 04:39:56;;;;;;;32.38;21.40;;;;;;;14.25;100.00;101954.03;5063903;28;20137;-77
2023/06/16 04:42:21;;;;;;;34.40;21.85;;;;;;;14.33;100.00;101952.84;5062406;28;20036;-78
2023/06/16 04:44:47;;;;;;;31.77;20.35;;;;;;;14.37;100.00;101957.09;5063206;28;20639;-77
2023/06/16 04:47:14;;;;;;;36.65;22.17;;;;;;;14.44;100.00;101944.38;5061528;28;20567;-77
2023/06/16 04:49:40;;;;;;;31.27;21.05;;;;;;;14.50;100.00;101950.28;5063809;28;20220;-78
2023/06/16 04:52:09;;;;;;;33.38;21.48;;;;;;;14.56;100.00;101942.97;5063072;28;20036;-79
2023/06/16 04:54:35;;;;;;;30.05;20.95;;;;;;;14.60;100.00;101940.06;5052044;28;20040;-78
2023/06/16 04:57:00;;;;;;;31.65;20.88;;;;;;;14.69;100.00;101944.13;5061593;28;20051;-79
2023/06/16 04:59:26;;;;;;;31.38;20.90;;;;;;;14.75;100.00;101941.22;5062670;28;20036;-78
2023/06/16 05:01:51;;;;;;;30.45;20.75;;;;;;;14.83;100.00;101940.00;5056718;28;20441;-78
2023/06/16 05:04:17;;;;;;;30.52;20.10;;;;;;;14.89;100.00;101939.72;5042234;28;20056;-79
2023/06/16 05:06:43;;;;;;;28.92;19.98;;;;;;;14.96;100.00;101941.16;5094574;27;20040;-78
2023/06/16 05:09:08;;;;;;;32.45;20.38;;;;;;;15.03;100.00;101937.28;5059818;28;20531;-77
2023/06/16 05:11:34;;;;;;;29.38;20.20;;;;;;;15.11;100.00;101938.72;5063057;28;20064;-78
2023/06/16 05:14:00;;;;;;;27.60;19.67;;;;;;;15.19;100.00;101936.53;5094600;27;20400;-78
2023/06/16 05:16:26;;;;;;;28.20;19.85;;;;;;;15.25;100.00;101932.72;5057177;28;20036;-78
2023/06/16 05:18:51;;;;;;;26.92;19.13;;;;;;;15.33;100.00;101933.22;5060062;28;20696;-79
2023/06/16 05:21:20;;;;;;;29.63;18.55;;;;;;;15.41;100.00;101936.38;5076615;28;20043;-78
2023/06/16 05:23:45;;;;;;;26.80;18.42;;;;;;;15.48;100.00;101939.63;5060189;28;20032;-78
2023/06/16 05:26:13;;;;;;;26.90;17.75;;;;;;;15.57;100.00;101944.50;5064305;28;20028;-78
2023/06/16 05:28:38;;;;;;;26.23;17.83;;;;;;;15.67;100.00;101941.38;5054504;28;20119;-77
2023/06/16 05:31:04;;;;;;;23.85;17.35;;;;;;;15.80;100.00;101945.16;5062203;28;20070;-77
2023/06/16 05:33:29;;;;;;;23.33;15.90;;;;;;;15.95;100.00;101942.72;5059143;28;20032;-78
2023/06/16 05:35:55;;;;;;;22.08;15.98;;;;;;;16.14;100.00;101945.28;5060274;28;20624;-78
2023/06/16 05:38:20;;;;;;;22.00;15.60;;;;;;;16.32;100.00;101943.47;5060717;28;20039;-78
2023/06/16 05:40:46;;;;;;;24.67;16.15;;;;;;;16.47;100.00;101933.78;5060455;28;20111;-77
2023/06/16 05:43:11;;;;;;;18.23;13.88;;;;;;;16.63;100.00;101947.19;5060078;28;20031;-78
2023/06/16 05:45:37;;;;;;;22.52;14.77;;;;;;;16.78;100.00;101947.31;5060191;28;20032;-78
2023/06/16 05:48:02;;;;;;;18.45;13.57;;;;;;;16.93;100.00;101940.22;5095399;27;20049;-78
2023/06/16 05:50:27;;;;;;;18.50;13.85;;;;;;;17.11;100.00;101935.72;5065427;28;20090;-78
2023/06/16 05:52:53;;;;;;;19.73;13.38;;;;;;;17.31;100.00;101944.41;5061353;28;20113;-78
2023/06/16 05:55:19;;;;;;;18.42;13.82;;;;;;;17.46;100.00;101937.34;5062424;28;20148;-78
2023/06/16 05:57:44;;;;;;;21.95;14.07;;;;;;;17.57;100.00;101942.94;5059700;28;20720;-77
2023/06/16 06:00:10;;;;;;;18.77;13.40;;;;;;;17.69;100.00;101946.72;5060229;28;20047;-78
2023/06/16 06:02:38;;;;;;;17.48;13.63;;;;;;;17.80;100.00;101940.72;5063832;28;20078;-78
2023/06/16 06:05:04;;;;;;;17.50;13.50;;;;;;;18.02;100.00;101942.13;5050369;28;20163;-78
2023/06/16 06:07:30;;;;;;;16.77;13.10;;;;;;;18.19;100.00;101949.19;5061904;28;20102;-79
2023/06/16 06:09:56;;;;;;;18.23;13.85;;;;;;;18.34;100.00;101947.38;5065713;28;20043;-77
2023/06/16 06:12:21;;;;;;;17.52;13.13;;;;;;;18.52;100.00;101944.53;5066281;28;20124;-78
2023/06/16 06:14:47;;;;;;;16.55;12.50;;;;;;;18.68;100.00;101955.19;5066978;28;20040;-79
2023/06/16 06:17:12;;;;;;;19.25;14.27;;;;;;;18.87;100.00;101946.81;5068456;28;20067;-77
2023/06/16 06:19:38;;;;;;;20.25;12.88;;;;;;;18.93;100.00;101954.50;5066123;28;20123;-78
2023/06/16 06:22:03;;;;;;;18.88;13.43;;;;;;;18.99;100.00;101956.78;5070419;28;20036;-79
2023/06/16 06:24:29;;;;;;;16.75;12.45;;;;;;;19.13;100.00;101950.53;5065588;28;20483;-78
2023/06/16 06:26:56;;;;;;;16.25;12.75;;;;;;;19.32;100.00;101954.72;5063594;28;20032;-78
2023/06/16 06:29:22;;;;;;;17.60;13.00;;;;;;;19.44;100.00;101962.94;5064900;28;20870;-78
2023/06/16 06:31:47;;;;;;;19.05;12.77;;;;;;;19.54;100.00;101956.88;5063777;28;20038;-78
2023/06/16 06:34:13;;;;;;;15.43;11.35;;;;;;;19.64;100.00;101969.69;5064168;28;20613;-78
2023/06/16 06:36:42;;;;;;;17.15;12.48;;;;;;;19.78;100.00;101955.34;5063295;28;20069;-78
2023/06/16 06:39:08;;;;;;;16.25;11.68;;;;;;;19.93;100.00;101962.34;5078502;28;20064;-78
2023/06/16 06:41:34;;;;;;;13.50;11.43;;;;;;;20.06;100.00;101959.72;5063469;28;20033;-78
2023/06/16 06:44:00;;;;;;;13.63;10.60;;;;;;;20.23;100.00;101960.41;5062124;28;20085;-77
2023/06/16 06:46:25;;;;;;;12.95;9.88;;;;;;;20.30;100.00;101967.06;5095829;27;20049;-74
2023/06/16 06:48:51;;;;;;;12.68;10.10;;;;;;;20.34;100.00;101959.66;5063312;28;20067;-75
2023/06/16 06:51:16;;;;;;;12.07;9.18;;;;;;;20.43;100.00;101959.00;5064350;28;20040;-75
2023/06/16 06:53:43;;;;;;;13.00;9.30;;;;;;;20.57;100.00;101967.91;5066689;28;20031;-74
2023/06/16 06:56:08;;;;;;;11.80;8.93;;;;;;;20.68;99.58;101959.97;5065859;28;20880;-75
2023/06/16 06:58:34;;;;;;;11.23;8.27;;;;;;;20.85;98.60;101964.16;5063328;28;20122;-75
2023/06/16 07:00:59;;;;;;;14.07;8.07;;;;;;;21.03;97.47;101971.91;5064753;28;20498;-75
2023/06/16 07:03:26;;;;;;;11.85;7.97;;;;;;;21.19;96.57;101971.59;5096796;27;20032;-75
2023/06/16 07:05:54;;;;;;;10.85;8.25;;;;;;;21.30;96.01;101965.47;5060680;28;20119;-75
2023/06/16 07:08:20;;;;;;;10.38;7.47;;;;;;;21.39;94.25;101963.91;5061094;28;20028;-74
2023/06/16 07:10:45;;;;;;;8.43;7.28;;;;;;;21.49;92.67;101974.84;5062623;28;20093;-74
2023/06/16 07:13:11;;;;;;;9.07;7.35;;;;;;;21.50;91.57;101972.06;5042885;28;20135;-77
2023/06/16 07:15:36;;;;;;;9.23;6.60;;;;;;;21.56;91.48;101962.63;5062876;28;20028;-74
2023/06/16 07:18:02;;;;;;;8.20;6.47;;;;;;;21.64;91.41;101976.41;5061931;28;20040;-76
2023/06/16 07:20:30;;;;;;;9.68;6.10;;;;;;;21.75;90.62;101970.25;5060090;28;20124;-76
2023/06/16 07:22:55;;;;;;;8.18;6.75;;;;;;;21.90;90.05;101961.97;5059132;28;20028;-77
2023/06/16 07:25:23;;;;;;;7.60;5.60;;;;;;;22.02;87.83;101962.84;5056814;28;20492;-76
2023/06/16 07:27:48;;;;;;;8.20;5.70;;;;;;;22.15;86.67;101965.44;5062230;27;20048;-75
2023/06/16 07:30:14;;;;;;;7.70;5.57;;;;;;;22.15;84.60;101962.75;5087688;27;20033;-75
2023/06/16 07:32:39;;;;;;;7.45;6.13;;;;;;;22.16;85.02;101965.34;5059186;28;20073;-75
2023/06/16 07:35:08;;;;;;;7.88;5.90;;;;;;;22.25;84.12;101961.94;5058354;28;20040;-77
2023/06/16 07:37:34;;;;;;;8.35;5.90;;;;;;;22.36;84.01;101974.59;5046195;28;20039;-77
2023/06/16 07:39:59;;;;;;;8.27;5.47;;;;;;;22.51;83.55;101963.59;5076084;28;20077;-75
2023/06/16 07:42:25;;;;;;;7.40;4.90;;;;;;;22.60;82.02;101972.81;5060283;28;20043;-76
2023/06/16 07:44:51;;;;;;;6.05;5.00;;;;;;;22.64;81.73;101975.16;5057645;28;20052;-75
2023/06/16 07:47:17;;;;;;;5.72;4.75;;;;;;;22.67;81.14;101970.47;5058674;28;20048;-76
2023/06/16 07:49:42;;;;;;;6.32;4.50;;;;;;;22.67;80.34;101978.56;5059828;28;20034;-74
2023/06/16 07:52:09;;;;;;;4.93;3.90;;;;;;;22.69;79.48;101982.00;5058822;28;20040;-77
2023/06/16 07:54:35;;;;;;;5.05;3.78;;;;;;;22.75;78.62;101976.09;5059128;28;20472;-76
2023/06/16 07:57:03;;;;;;;4.82;3.80;;;;;;;22.92;78.70;101972.94;5059563;28;20032;-74
2023/06/16 07:59:28;;;;;;;3.90;3.50;;;;;;;23.08;77.49;101971.66;5058863;28;20048;-76
2023/06/16 08:01:54;;;;;;;4.32;3.28;;;;;;;23.20;75.58;101973.38;5057632;28;20028;-74
2023/06/16 08:04:19;;;;;;;5.15;3.30;;;;;;;23.16;71.41;101977.31;5058808;28;20039;-75
2023/06/16 08:06:45;;;;;;;4.13;3.20;;;;;;;23.15;70.93;101970.19;5058230;28;20066;-75
2023/06/16 08:09:10;;;;;;;3.95;2.72;;;;;;;23.08;69.65;101971.66;5060384;28;20027;-75
2023/06/16 08:11:36;;;;;;;4.15;3.08;;;;;;;23.03;69.44;101963.09;5060718;28;20033;-80
2023/06/16 08:14:02;;;;;;;4.35;2.80;;;;;;;23.08;69.27;101966.28;5065078;28;20046;-81
2023/06/16 08:16:27;;;;;;;3.80;3.20;;;;;;;23.22;67.11;101965.16;5063683;28;20521;-81
2023/06/16 08:18:57;;;;;;;3.63;2.90;;;;;;;23.25;65.92;101964.88;5063205;28;20871;-84
2023/06/16 08:21:23;;;;;;;5.38;3.00;;;;;;;23.25;64.73;101964.03;5059560;28;20042;-80
2023/06/16 08:23:52;;;;;;;3.90;3.10;;;;;;;23.20;63.58;101957.16;5052820;28;20025;-82
2023/06/16 08:26:18;;;;;;;3.33;2.55;;;;;;;23.24;61.01;101965.88;5063577;28;20071;-83
2023/06/16 08:28:44;;;;;;;2.78;2.20;;;;;;;23.31;60.15;101966.28;5062717;28;21021;-79
2023/06/16 08:31:13;;;;;;;2.55;2.35;;;;;;;23.44;59.04;101960.72;5062138;28;20036;-79
2023/06/16 08:33:38;;;;;;;3.33;2.70;;;;;;;23.50;58.47;101964.72;5060249;28;20493;-80
2023/06/16 08:36:04;;;;;;;2.80;2.30;;;;;;;23.53;58.18;101972.59;5062092;28;20032;-80
2023/06/16 08:38:31;;;;;;;4.68;2.50;;;;;;;23.43;58.64;101967.94;5063051;28;20048;-86
2023/06/16 08:41:04;;;;;;;4.13;2.50;;;;;;;23.43;56.05;101954.44;5051529;28;20024;-79
2023/06/16 08:43:32;;;;;;;3.03;2.30;;;;;;;23.57;56.51;101963.22;5059216;28;20029;-80
2023/06/16 08:46:01;;;;;;;3.63;2.70;;;;;;;23.55;58.58;101962.50;5052340;28;20036;-80
2023/06/16 08:48:26;;;;;;;4.00;2.50;;;;;;;23.44;56.87;101958.84;5065292;28;20047;-80
2023/06/16 08:50:55;;;;;;;2.60;2.05;;;;;;;23.50;57.25;101962.03;5060250;28;20032;-75
2023/06/16 08:53:22;;;;;;;2.38;1.98;;;;;;;23.49;56.60;101961.19;5092654;27;20032;-76
2023/06/16 08:55:48;;;;;;;2.70;2.20;;;;;;;23.50;56.98;101959.31;5062527;28;20033;-74
2023/06/16 08:58:15;;;;;;;2.42;1.95;;;;;;;23.58;56.78;101959.53;5058060;28;20032;-75
2023/06/16 09:00:41;;;;;;;2.92;2.00;;;;;;;23.61;55.15;101962.00;5058707;28;20047;-76
2023/06/16 09:03:08;;;;;;;2.80;1.98;;;;;;;23.60;54.50;101969.22;5056898;28;20040;-76
2023/06/16 09:05:34;;;;;;;5.18;2.03;;;;;;;23.60;54.67;101957.59;5040019;28;20089;-75
2023/06/16 09:08:01;;;;;;;2.65;2.38;;;;;;;23.82;55.13;101961.16;5058628;28;20036;-75
2023/06/16 09:10:29;;;;;;;2.78;2.00;;;;;;;23.85;54.45;101958.19;5059075;28;20032;-74
2023/06/16 09:13:02;;;;;;;2.88;1.75;;;;;;;23.93;52.69;101963.81;5056816;28;20039;-76
2023/06/16 09:15:33;;;;;;;2.70;1.83;;;;;;;23.97;53.47;101964.41;5054096;28;20096;-76
2023/06/16 09:18:04;;;;;;;2.30;1.88;;;;;;;24.07;51.39;101969.94;5058609;28;20062;-74
2023/06/16 09:20:33;;;;;;;2.58;1.83;;;;;;;24.10;51.65;101965.13;5057601;28;20098;-77
2023/06/16 09:23:00;;;;;;;2.00;1.75;;;;;;;24.09;51.21;101965.25;5060390;28;20156;-75
2023/06/16 09:25:29;;;;;;;1.90;1.58;;;;;;;24.10;51.05;101970.53;5054265;28;20725;-74
2023/06/16 09:27:59;;;;;;;2.35;1.65;;;;;;;24.26;50.45;101963.78;5040141;28;20079;-76
2023/06/16 09:30:33;;;;;;;2.38;1.77;;;;;;;24.48;48.71;101962.78;5054421;28;20953;-75
2023/06/16 09:32:59;;;;;;;2.42;1.70;;;;;;;24.58;48.45;101956.53;5056337;28;20036;-74
2023/06/16 09:35:26;;;;;;;2.03;1.80;;;;;;;24.62;46.25;101968.81;5058672;28;20479;-74
2023/06/16 09:37:54;;;;;;;2.58;1.80;;;;;;;24.56;45.78;101967.50;5060061;28;20123;-74
2023/06/16 09:40:24;;;;;;;2.60;1.85;;;;;;;24.51;46.06;101961.66;5058658;28;20032;-74
2023/06/16 09:42:53;;;;;;;2.58;1.80;;;;;;;24.68;44.14;101965.56;5056998;28;20039;-76
2023/06/16 09:45:22;;;;;;;1.60;1.50;;;;;;;24.77;44.12;101961.16;5047007;28;20040;-75
2023/06/16 09:47:48;;;;;;;1.65;1.55;;;;;;;24.86;44.09;101960.38;5055799;28;20086;-73
2023/06/16 09:50:19;;;;;;;3.35;1.85;;;;;;;24.91;43.34;101957.25;5054055;28;20170;-75
2023/06/16 09:52:47;;;;;;;2.58;1.70;;;;;;;24.88;42.74;101952.97;5058668;28;20044;-74
2023/06/16 09:55:13;;;;;;;1.70;1.60;;;;;;;24.91;42.62;101951.84;5063627;28;20111;-76
2023/06/16 09:57:42;;;;;;;2.50;1.92;;;;;;;24.79;42.28;101951.06;5057437;28;20390;-78
2023/06/16 10:00:13;;;;;;;3.08;2.20;;;;;;;24.65;41.91;101955.00;5056623;28;20142;-74
2023/06/16 10:02:43;;;;;;;2.10;1.60;;;;;;;24.50;42.53;101955.38;5050993;28;20032;-74
2023/06/16 10:22:25;;;;;;;2.20;2.00;;;;;;;24.16;42.17;101952.91;5096749;28;20035;-75
2023/06/16 10:24:51;;;;;;;2.00;1.80;;;;;;;24.01;41.87;101953.19;5081766;28;20127;-75
2023/06/16 10:27:18;;;;;;;1.92;1.73;;;;;;;23.99;41.45;101941.66;5078232;28;20544;-75
2023/06/16 10:29:46;;;;;;;1.70;1.60;;;;;;;24.05;41.65;101945.69;5064562;28;20119;-72
2023/06/16 10:32:21;;;;;;;3.92;2.00;;;;;;;24.13;41.04;101943.19;5081963;27;20024;-75
2023/06/16 10:34:49;;;;;;;3.88;2.28;;;;;;;24.21;41.55;101942.53;5069299;28;20696;-75
2023/06/16 10:37:15;;;;;;;2.70;1.88;;;;;;;24.17;42.05;101934.84;5074701;28;20035;-75
2023/06/16 10:39:42;;;;;;;1.63;1.50;;;;;;;24.23;42.14;101936.97;5052318;28;20035;-76
2023/06/16 10:42:14;;;;;;;2.83;1.65;;;;;;;24.21;42.40;101945.25;5102490;27;20027;-74
2023/06/16 10:44:43;;;;;;;1.80;1.70;;;;;;;24.19;42.18;101943.66;5060538;28;20040;-75
2023/06/16 10:47:24;;;;;;;3.05;2.47;;;;;;;24.25;42.53;101940.44;5074989;28;20048;-74
2023/06/16 10:50:00;;;;;;;2.13;1.95;;;;;;;24.37;42.40;101943.91;5058411;28;20020;-74
2023/06/16 10:52:28;;;;;;;2.20;1.95;;;;;;;24.46;41.42;101937.66;5056839;28;20164;-75
2023/06/16 10:55:36;;;;;;;6.05;2.08;;;;;;;24.35;40.41;101952.16;5072487;28;20052;-73
2023/06/16 10:58:17;;;;;;;2.30;1.88;;;;;;;24.28;41.09;101935.59;5044755;28;20078;-73
2023/06/16 11:01:23;;;;;;;3.15;1.90;;;;;;;24.32;40.30;101932.63;5080779;28;20044;-75
2023/06/16 11:04:01;;;;;;;2.28;1.83;;;;;;;24.34;42.35;101933.38;5066958;28;20032;-75
2023/06/16 11:06:29;;;;;;;2.72;1.77;;;;;;;24.35;42.90;101929.66;5056851;28;20031;-74
2023/06/16 11:08:58;;;;;;;2.85;2.00;;;;;;;24.37;42.56;101933.06;5081957;28;20031;-73
2023/06/16 11:11:33;;;;;;;1.88;1.73;;;;;;;24.34;41.85;101930.66;5083450;28;20055;-73
2023/06/16 11:14:01;;;;;;;2.17;1.90;;;;;;;24.34;42.56;101927.94;5088199;28;20032;-73
2023/06/16 11:16:27;;;;;;;2.03;1.83;;;;;;;24.24;42.81;101926.03;5087668;27;20024;-74
2023/06/16 11:18:54;;;;;;;2.28;2.05;;;;;;;24.18;42.28;101926.56;5065371;28;20042;-74
2023/06/16 11:21:30;;;;;;;2.78;2.10;;;;;;;24.16;42.71;101920.44;5098850;27;20035;-73
2023/06/16 11:24:07;;;;;;;3.88;2.13;;;;;;;24.22;41.45;101930.72;5076656;28;20103;-74
2023/06/16 11:26:32;;;;;;;2.40;2.20;;;;;;;24.28;41.95;101930.19;5074904;28;20031;-73
2023/06/16 11:28:57;;;;;;;2.55;2.10;;;;;;;24.31;41.56;101917.38;5045070;28;20093;-74
2023/06/16 11:31:23;;;;;;;2.20;1.80;;;;;;;24.33;42.30;101918.09;5080337;28;20032;-73